タリン の空港の天気 - METARとTAF

タリン空港 ( EETN / TLL ) - エストニア タリン
飛行場実況気象(Metar)
観測時間04/24 18:20 EEST (04/24 15:20 UTC)
風向・風速東北東 7m/s
視程10km以上
天気現象
なし
気温19℃
湿度26%
気圧1025hPa
METAREETN 241520Z 06013KT CAVOK 19/M01 Q1025 NOSIG
過去の天気等 Google飛行場航空写真 Wunderground天気予報

過去48時間のMETAR

飛行場予報(TAF)
発表時間: 4/24 14:10 EEST (4/24 11:10 UTC)
予報対象時間: 24日15時 EEST ~ 25日15時 EEST
風向・風速南東 4m/s
視程10km以上
なし
24日15時 EEST ~ 24日21時 EEST に一時的に
風向・風速北東 5m/s
TAF EETN 241110Z 2412/2512 13007KT CAVOK
TEMPO 2412/2418 05010KT